Time;durP1;ratioP1;P1;durP2;ratioP2;P2;SDS_P1;SDS_P2;PMS_P1;PMS_P2;Temp;Humidity;BMP_temperature;BMP_pressure;BME280_temperature;BME280_humidity;BME280_pressure;Samples;Min_cycle;Max_cycle;Signal;HPM_P1;HPM_P2
2021/04/01 00:00:10;;;;;;;36.13;19.25;;;;;;;9.23;68.21;97823.06;4998970;28;20072;-83
2021/04/01 00:02:36;;;;;;;44.35;22.75;;;;;;;9.27;67.66;97825.53;4998995;28;20064;-83
2021/04/01 00:05:02;;;;;;;39.92;22.88;;;;;;;9.25;68.09;97829.22;4998936;28;20124;-84
2021/04/01 00:07:28;;;;;;;41.67;23.10;;;;;;;9.23;68.44;97821.28;4999090;28;20565;-83
2021/04/01 00:09:53;;;;;;;44.72;23.02;;;;;;;9.30;68.10;97813.81;4999275;28;20049;-83
2021/04/01 00:12:19;;;;;;;44.83;24.25;;;;;;;9.22;68.85;97806.22;4998882;28;20115;-83
2021/04/01 00:14:45;;;;;;;44.65;23.70;;;;;;;9.23;68.26;97804.41;4999071;28;20056;-83
2021/04/01 00:17:11;;;;;;;41.42;23.08;;;;;;;9.29;66.43;97816.59;4999262;28;20048;-85
2021/04/01 00:19:37;;;;;;;42.78;22.60;;;;;;;9.26;67.09;97813.09;4999137;28;20112;-83
2021/04/01 00:22:03;;;;;;;47.53;23.08;;;;;;;9.34;66.47;97810.06;4998039;28;20052;-83
2021/04/01 00:24:29;;;;;;;41.47;23.48;;;;;;;9.39;66.88;97817.81;4998633;28;20033;-84
2021/04/01 00:26:54;;;;;;;41.38;24.98;;;;;;;9.38;65.38;97803.63;4998776;28;20021;-84
2021/04/01 00:29:20;;;;;;;46.65;25.13;;;;;;;9.27;65.62;97798.81;4998629;28;20087;-83
2021/04/01 00:31:45;;;;;;;42.75;24.80;;;;;;;9.34;65.59;97803.84;4998894;28;20091;-84
2021/04/01 00:34:11;;;;;;;39.28;23.05;;;;;;;9.38;64.13;97800.06;4998864;28;20026;-84
2021/04/01 00:36:37;;;;;;;41.15;23.52;;;;;;;9.38;64.67;97794.75;4998773;28;20143;-84
2021/04/01 00:39:03;;;;;;;36.58;22.17;;;;;;;9.36;64.18;97792.13;4998495;28;20171;-84
2021/04/01 00:41:28;;;;;;;38.70;21.98;;;;;;;9.33;63.97;97778.09;4998620;28;20128;-84
2021/04/01 00:43:54;;;;;;;37.22;21.42;;;;;;;9.33;64.55;97791.44;4998457;28;20036;-84
2021/04/01 00:46:19;;;;;;;35.45;21.60;;;;;;;9.35;65.16;97794.91;4999019;28;20499;-83
2021/04/01 00:48:45;;;;;;;36.95;21.48;;;;;;;9.35;65.32;97787.72;4998836;28;20475;-83
2021/04/01 00:51:10;;;;;;;38.25;21.10;;;;;;;9.20;67.00;97783.19;4998282;28;20464;-83
2021/04/01 00:53:36;;;;;;;40.30;22.30;;;;;;;9.00;67.45;97789.59;4998513;28;20036;-84
2021/04/01 00:56:02;;;;;;;38.38;21.83;;;;;;;8.95;69.47;97772.94;4998217;28;20038;-83
2021/04/01 00:58:28;;;;;;;34.58;20.98;;;;;;;8.86;69.22;97764.59;4998627;28;20109;-83
2021/04/01 01:03:38;;;;;;;39.58;21.00;;;;;;;8.90;69.55;97766.13;5009850;28;20560;-83
2021/04/01 01:06:04;;;;;;;39.03;21.00;;;;;;;8.90;68.28;97759.00;4998725;28;20033;-83
2021/04/01 01:08:30;;;;;;;34.60;20.38;;;;;;;8.94;68.47;97754.38;4998019;28;20044;-83
2021/04/01 01:10:56;;;;;;;44.08;21.02;;;;;;;9.05;68.13;97760.88;4998346;28;20018;-84
2021/04/01 01:13:21;;;;;;;38.28;22.00;;;;;;;8.96;67.33;97744.47;5014397;28;20104;-83
2021/04/01 01:15:47;;;;;;;43.60;21.15;;;;;;;8.93;66.62;97741.97;4997958;28;20028;-84
2021/04/01 01:18:12;;;;;;;44.40;21.30;;;;;;;9.01;67.37;97742.44;4997801;28;20531;-83
2021/04/01 01:20:38;;;;;;;40.53;23.00;;;;;;;9.07;65.74;97739.44;4998293;28;20121;-82
2021/04/01 01:23:07;;;;;;;39.83;22.25;;;;;;;9.15;64.76;97745.22;4997642;28;20087;-83
2021/04/01 01:25:33;;;;;;;39.33;22.35;;;;;;;9.16;65.42;97742.50;5014541;28;20056;-84
2021/04/01 01:27:59;;;;;;;41.88;23.25;;;;;;;9.17;66.04;97732.66;4997950;28;20108;-84
2021/04/01 01:30:24;;;;;;;38.30;23.20;;;;;;;9.18;66.54;97735.25;4997813;28;20049;-84
2021/04/01 01:32:57;;;;;;;41.42;22.23;;;;;;;9.19;68.27;97742.34;4997800;28;20080;-84
2021/04/01 01:35:30;;;;;;;40.40;21.42;;;;;;;9.20;68.44;97737.84;4998989;28;20026;-84
2021/04/01 01:38:00;;;;;;;46.60;23.63;;;;;;;9.16;69.34;97722.94;4997888;28;20029;-84
2021/04/01 01:40:27;;;;;;;39.05;22.23;;;;;;;9.08;68.95;97718.00;4997770;28;20034;-84
2021/04/01 01:42:55;;;;;;;39.05;22.38;;;;;;;9.06;68.50;97714.56;4997546;28;20029;-83
2021/04/01 01:45:21;;;;;;;40.28;22.52;;;;;;;9.02;67.05;97713.00;4997398;28;20045;-84
2021/04/01 01:47:47;;;;;;;41.22;21.98;;;;;;;9.10;68.39;97716.16;4997687;28;20018;-83
2021/04/01 01:50:17;;;;;;;43.20;22.23;;;;;;;9.14;67.38;97719.47;4997470;28;20117;-82
2021/04/01 01:52:43;;;;;;;34.33;20.85;;;;;;;9.17;67.58;97725.53;4997555;28;20017;-83
2021/04/01 01:55:10;;;;;;;34.85;20.77;;;;;;;9.15;68.21;97719.41;4997970;28;20088;-83
2021/04/01 01:57:36;;;;;;;35.38;20.63;;;;;;;9.12;67.92;97722.25;5013785;28;20028;-83
2021/04/01 02:00:05;;;;;;;38.05;20.58;;;;;;;9.08;68.68;97717.16;4997434;28;20060;-84
2021/04/01 02:02:30;;;;;;;38.88;21.08;;;;;;;9.02;68.62;97710.34;4997135;28;20455;-82
2021/04/01 02:04:56;;;;;;;42.30;22.05;;;;;;;9.08;68.98;97712.66;4997686;28;20044;-83
2021/04/01 02:07:22;;;;;;;36.05;22.05;;;;;;;9.10;69.52;97721.47;4997632;28;20064;-83
2021/04/01 02:09:48;;;;;;;36.72;22.30;;;;;;;9.12;69.41;97730.25;4997771;28;20069;-82
2021/04/01 02:12:17;;;;;;;42.17;21.45;;;;;;;9.00;68.92;97706.03;4997167;28;20022;-83
2021/04/01 02:14:44;;;;;;;38.67;21.75;;;;;;;9.16;68.30;97737.16;4997268;28;20559;-83
2021/04/01 02:17:11;;;;;;;36.25;21.00;;;;;;;9.12;69.32;97740.94;4997402;28;20029;-83
2021/04/01 02:19:37;;;;;;;41.42;22.63;;;;;;;9.15;68.74;97738.09;5013887;28;20443;-83
2021/04/01 02:22:03;;;;;;;36.03;20.67;;;;;;;9.16;68.63;97734.50;4997310;28;20108;-83
2021/04/01 02:24:28;;;;;;;39.08;22.98;;;;;;;9.16;68.91;97741.63;4996942;28;20032;-83
2021/04/01 02:26:55;;;;;;;45.42;22.00;;;;;;;9.19;69.08;97737.00;4996783;28;20028;-83
2021/04/01 02:29:21;;;;;;;38.00;21.73;;;;;;;9.14;69.64;97733.69;4997040;28;20060;-83
2021/04/01 02:31:47;;;;;;;43.20;22.88;;;;;;;9.11;69.63;97733.84;4996985;28;20025;-81
2021/04/01 02:34:13;;;;;;;41.92;22.40;;;;;;;9.11;69.70;97738.31;4996873;28;20024;-82
2021/04/01 02:36:38;;;;;;;56.35;22.55;;;;;;;9.13;70.68;97748.00;5013366;28;20029;-83
2021/04/01 02:39:04;;;;;;;41.55;21.75;;;;;;;9.07;70.14;97739.44;4996912;28;20022;-83
2021/04/01 02:41:30;;;;;;;50.40;23.33;;;;;;;9.08;70.10;97730.47;4996899;28;20034;-83
2021/04/01 02:43:55;;;;;;;58.92;25.13;;;;;;;9.08;71.13;97739.34;4996753;28;20061;-83
2021/04/01 02:46:21;;;;;;;58.53;25.90;;;;;;;9.04;71.08;97735.16;4998765;28;20025;-82
2021/04/01 02:48:46;;;;;;;58.92;28.50;;;;;;;9.10;71.33;97742.81;5000886;28;20042;-83
2021/04/01 02:51:12;;;;;;;67.15;25.25;;;;;;;9.07;71.81;97740.31;5017228;28;20469;-84
2021/04/01 02:53:37;;;;;;;44.95;23.50;;;;;;;8.99;71.12;97726.50;4998035;28;20160;-82
2021/04/01 02:56:03;;;;;;;40.03;22.23;;;;;;;9.02;71.35;97745.03;5000284;28;20025;-84
2021/04/01 02:58:29;;;;;;;46.10;23.17;;;;;;;8.95;70.97;97738.28;5000683;28;20040;-83
2021/04/01 03:00:54;;;;;;;44.22;21.00;;;;;;;9.03;70.65;97737.88;5000357;28;20029;-83
2021/04/01 03:03:26;;;;;;;37.13;21.35;;;;;;;9.06;70.81;97741.25;4999956;28;20042;-84
2021/04/01 03:05:52;;;;;;;41.08;22.08;;;;;;;9.05;70.67;97742.19;5000818;28;20044;-84
2021/04/01 03:08:17;;;;;;;41.33;22.02;;;;;;;9.03;70.81;97741.41;4999892;28;20033;-84
2021/04/01 03:10:43;;;;;;;37.97;20.08;;;;;;;9.08;69.50;97734.03;5000171;28;20029;-84
2021/04/01 03:13:09;;;;;;;34.33;19.52;;;;;;;9.12;69.49;97751.59;5000656;28;20033;-84
2021/04/01 03:15:35;;;;;;;36.58;18.48;;;;;;;9.00;68.90;97741.56;5000084;28;20029;-84
2021/04/01 03:18:01;;;;;;;34.15;18.30;;;;;;;9.08;69.35;97743.81;4999998;28;20029;-84
2021/04/01 03:20:26;;;;;;;37.63;19.92;;;;;;;9.00;69.96;97730.91;4999737;28;20075;-84
2021/04/01 03:22:52;;;;;;;35.45;19.33;;;;;;;8.92;70.43;97730.44;4999703;28;20029;-84
2021/04/01 03:25:18;;;;;;;40.95;20.15;;;;;;;9.02;70.15;97747.69;5000228;28;20041;-84
2021/04/01 03:27:43;;;;;;;39.20;19.00;;;;;;;8.95;70.38;97738.28;5001216;28;20448;-84
2021/04/01 03:30:12;;;;;;;42.42;17.00;;;;;;;8.92;71.66;97743.75;5017340;28;20033;-84
2021/04/01 03:32:48;;;;;;;37.13;18.05;;;;;;;8.81;73.38;97734.59;4999615;28;20040;-83
2021/04/01 03:35:15;;;;;;;38.08;17.65;;;;;;;8.74;73.53;97739.38;4999926;28;20086;-83
2021/04/01 03:37:43;;;;;;;40.38;19.77;;;;;;;8.69;74.09;97736.97;5000418;28;20556;-82
2021/04/01 03:40:09;;;;;;;33.95;18.02;;;;;;;8.64;74.83;97732.81;4999891;28;20048;-82
2021/04/01 03:42:37;;;;;;;41.40;18.83;;;;;;;8.62;75.22;97738.22;5000076;28;20033;-83
2021/04/01 03:45:03;;;;;;;35.05;19.02;;;;;;;8.60;75.97;97742.78;4999709;28;20125;-83
2021/04/01 03:47:29;;;;;;;37.25;20.30;;;;;;;8.49;75.96;97736.28;5000013;28;20025;-84
2021/04/01 03:49:55;;;;;;;38.67;19.85;;;;;;;8.45;76.69;97730.22;4997425;28;20382;-83
2021/04/01 03:52:20;;;;;;;41.83;21.88;;;;;;;8.49;76.91;97726.44;5000049;28;20110;-83
2021/04/01 03:54:51;;;;;;;37.95;21.25;;;;;;;8.51;77.17;97726.38;5000086;28;20116;-84
2021/04/01 03:57:17;;;;;;;37.67;19.83;;;;;;;8.57;76.50;97752.72;5000111;28;20032;-83
2021/04/01 03:59:59;;;;;;;35.08;20.63;;;;;;;8.57;76.26;97750.94;5000860;28;20033;-83
2021/04/01 04:08:16;;;;;;;38.33;20.60;;;;;;;8.51;76.25;97745.03;5016511;28;20399;-84
2021/04/01 04:15:18;;;;;;;47.75;21.50;;;;;;;8.56;75.03;97764.31;5017321;28;20083;-83
2021/04/01 04:17:44;;;;;;;39.63;22.98;;;;;;;8.62;75.37;97777.34;4999099;28;20503;-84
2021/04/01 04:20:10;;;;;;;41.85;22.73;;;;;;;8.63;75.16;97771.09;4998817;28;20108;-83
2021/04/01 04:22:36;;;;;;;45.25;22.58;;;;;;;8.67;74.17;97764.66;4999071;28;20091;-85
2021/04/01 04:25:04;;;;;;;44.10;21.85;;;;;;;8.72;72.83;97759.94;4998804;28;20033;-84
2021/04/01 04:28:12;;;;;;;46.42;23.77;;;;;;;8.61;73.66;97754.31;4998615;28;20544;-84
2021/04/01 04:30:19;;;;;;;98.43;22.83;;;;;;;8.65;73.83;97772.72;5010333;28;20044;-83
2021/04/01 04:32:44;;;;;;;55.60;27.52;;;;;;;8.60;73.86;97769.44;4998442;28;20057;-83
2021/04/01 04:35:10;;;;;;;52.88;28.70;;;;;;;8.66;74.81;97782.47;4998049;28;20116;-84
2021/04/01 04:37:36;;;;;;;63.47;32.90;;;;;;;8.62;73.67;97766.69;4998278;28;20029;-84
2021/04/01 04:40:03;;;;;;;59.50;31.27;;;;;;;8.69;75.61;97768.97;4997966;28;20031;-84
2021/04/01 04:42:29;;;;;;;69.55;32.47;;;;;;;8.78;74.25;97767.63;4997990;28;20051;-85
2021/04/01 04:44:54;;;;;;;58.97;31.50;;;;;;;8.71;74.41;97766.22;4998160;28;20029;-84
2021/04/01 04:47:20;;;;;;;74.55;33.63;;;;;;;8.69;74.66;97768.09;4998216;28;20037;-84
2021/04/01 04:49:46;;;;;;;83.82;34.40;;;;;;;8.87;74.21;97777.84;4998311;28;20581;-84
2021/04/01 04:52:11;;;;;;;69.50;32.80;;;;;;;9.02;73.50;97781.50;4997975;28;20466;-84
2021/04/01 04:54:37;;;;;;;68.18;33.45;;;;;;;9.16;72.76;97790.53;4999399;28;20091;-84
2021/04/01 05:05:06;;;;;;;59.97;26.92;;;;;;;9.17;69.70;97786.91;5016645;28;20064;-84
2021/04/01 05:07:31;;;;;;;72.05;31.92;;;;;;;9.05;70.79;97776.88;4997758;28;20047;-85
2021/04/01 05:09:57;;;;;;;57.30;28.10;;;;;;;9.14;70.76;97797.75;4997194;28;20409;-85
2021/04/01 05:12:23;;;;;;;57.45;28.77;;;;;;;9.21;69.40;97777.81;4997651;28;20505;-85
2021/04/01 05:14:48;;;;;;;59.60;28.52;;;;;;;9.43;68.56;97792.69;5002266;28;20029;-85
2021/04/01 05:17:17;;;;;;;53.10;24.77;;;;;;;9.51;67.41;97791.31;4999682;28;20033;-85
2021/04/01 05:19:43;;;;;;;46.22;24.20;;;;;;;9.19;68.07;97789.50;5015521;28;20029;-84
2021/04/01 05:22:16;;;;;;;45.72;24.27;;;;;;;9.11;69.03;97792.56;4998482;28;20029;-85
2021/04/01 05:24:42;;;;;;;;;;;;;;;9.27;69.24;97797.97;5003932;28;20033;-79
2021/04/01 05:29:59;;;;;;;48.30;22.67;;;;;;;10.41;64.14;97794.34;4999249;28;20029;-78
2021/04/01 05:32:31;;;;;;;59.08;23.95;;;;;;;10.86;61.56;97802.34;5014843;28;20044;-79
2021/04/01 05:34:57;;;;;;;40.45;19.30;;;;;;;11.03;59.94;97793.34;4997602;28;20565;-79
2021/04/01 05:37:27;;;;;;;36.92;20.08;;;;;;;11.23;59.08;97791.19;5014948;28;20053;-80
2021/04/01 05:40:00;;;;;;;38.47;16.35;;;;;;;10.99;59.14;97773.91;4990790;28;20035;-82
2021/04/01 05:42:31;;;;;;;42.80;16.38;;;;;;;11.58;58.05;97775.63;5014770;28;20108;-80
2021/04/01 05:45:06;;;;;;;33.40;16.70;;;;;;;12.33;54.50;97787.84;4999797;28;20064;-79
2021/04/01 06:04:50;;;;;;;;;;;;;;;;;;;;;
2021/04/01 06:08:09;;;;;;;;;;;;;;;;;;;;;
2021/04/01 06:15:12;;;;;;;;;;;;;;;;;;;;;
2021/04/01 06:21:23;;;;;;;22.08;12.30;;;;;;;19.07;33.39;97772.03;4858673;29;20032;-82
2021/04/01 06:24:06;;;;;;;;;;;;;;;;;;;;;
2021/04/01 06:26:53;;;;;;;;;;;;;;;;;;;;;
2021/04/01 06:36:37;;;;;;;;;;;;;;;;;;;;;
2021/04/01 06:39:56;;;;;;;;;;;;;;;;;;;;;
2021/04/01 06:52:27;;;;;;;;;;;;;;;;;;;;;
2021/04/01 07:09:29;;;;;;;;;;;;;;;;;;;;;
2021/04/01 07:50:14;;;;;;;18.45;11.60;;;;;;;24.32;25.72;97817.31;5015503;28;20038;-82
2021/04/01 07:52:41;;;;;;;17.45;12.05;;;;;;;25.10;24.27;97797.19;5015605;28;20033;-82
2021/04/01 07:55:15;;;;;;;18.60;11.95;;;;;;;25.71;23.51;97785.34;4999491;28;20465;-76
2021/04/01 08:00:21;;;;;;;22.05;12.48;;;;;;;27.10;22.05;97799.31;5001711;28;20033;-78
2021/04/01 08:05:28;;;;;;;16.70;11.55;;;;;;;26.02;23.10;97793.47;5013044;28;20652;-77
2021/04/01 08:08:09;;;;;;;17.45;10.57;;;;;;;25.26;22.79;97782.53;5012740;28;20041;-77
2021/04/01 08:10:40;;;;;;;15.88;10.07;;;;;;;26.18;22.29;97790.56;4981509;28;20045;-78
2021/04/01 08:13:09;;;;;;;19.92;11.05;;;;;;;26.76;21.17;97780.69;4995651;28;20038;-78
2021/04/01 08:15:47;;;;;;;16.55;9.55;;;;;;;27.02;20.87;97781.03;4995525;28;20033;-77
2021/04/01 08:18:34;;;;;;;19.13;10.48;;;;;;;25.60;22.44;97785.75;4980251;28;20494;-85
2021/04/01 08:21:04;;;;;;;21.50;10.65;;;;;;;25.53;23.25;97792.16;4982913;28;20061;-86
2021/04/01 08:36:58;;;;;;;22.10;10.38;;;;;;;28.96;20.29;97750.16;4997151;28;20486;-80
2021/04/01 08:39:24;;;;;;;17.98;10.85;;;;;;;29.05;20.00;97759.94;4978034;28;20355;-75
2021/04/01 08:42:17;;;;;;;16.30;9.93;;;;;;;27.57;19.86;97763.94;4991803;28;20040;-75
2021/04/01 08:45:01;;;;;;;16.15;9.05;;;;;;;26.54;21.09;97770.66;4975138;28;20026;-75
2021/04/01 08:47:45;;;;;;;14.27;8.43;;;;;;;26.92;20.63;97764.84;4996549;28;20501;-77
2021/04/01 08:50:46;;;;;;;12.23;8.43;;;;;;;27.45;18.81;97760.84;5011491;28;20044;-77
2021/04/01 08:53:27;;;;;;;22.40;8.15;;;;;;;24.65;20.33;97750.50;4992855;28;20034;-77
2021/04/01 08:56:25;;;;;;;15.05;8.50;;;;;;;24.86;21.03;97750.78;4992635;28;20022;-76
2021/04/01 08:59:13;;;;;;;15.43;7.97;;;;;;;26.32;19.37;97745.88;4988687;28;20029;-77
2021/04/01 09:01:40;;;;;;;17.17;7.43;;;;;;;23.62;19.78;97726.84;5010891;28;20494;-77
2021/04/01 09:04:07;;;;;;;12.93;7.40;;;;;;;24.28;19.86;97741.09;4987545;28;20583;-78
2021/04/01 09:06:40;;;;;;;11.57;7.28;;;;;;;22.64;20.77;97724.97;4996379;28;20163;-76
2021/04/01 09:09:15;;;;;;;12.15;7.40;;;;;;;24.68;20.18;97740.06;5012488;28;20115;-74
2021/04/01 09:14:18;;;;;;;35.70;9.55;;;;;;;25.33;21.08;97732.34;5012539;28;20386;-77
2021/04/01 09:16:57;;;;;;;12.85;7.40;;;;;;;26.81;18.61;97731.56;4997135;28;20021;-78
2021/04/01 09:19:29;;;;;;;12.35;6.88;;;;;;;27.71;17.80;97729.16;5012142;28;20485;-81
2021/04/01 09:21:55;;;;;;;11.32;6.78;;;;;;;27.08;17.83;97727.22;5013932;28;20493;-78
2021/04/01 09:24:28;;;;;;;18.08;7.13;;;;;;;27.72;17.15;97728.97;4996161;28;20026;-77
2021/04/01 09:26:54;;;;;;;9.90;6.57;;;;;;;28.62;15.85;97715.22;4995525;28;20095;-79
2021/04/01 09:29:39;;;;;;;13.48;7.05;;;;;;;27.73;17.62;97710.56;4995758;28;20499;-79
2021/04/01 09:32:27;;;;;;;12.27;6.72;;;;;;;29.48;16.78;97699.88;4995700;28;20033;-80
2021/04/01 09:34:53;;;;;;;12.98;8.30;;;;;;;29.81;15.18;97710.94;4996658;28;20485;-79
2021/04/01 09:37:20;;;;;;;14.05;7.20;;;;;;;30.71;14.79;97690.84;4994204;28;20102;-79
2021/04/01 09:39:46;;;;;;;12.27;7.28;;;;;;;29.70;16.12;97703.28;4995149;28;20163;-79
2021/04/01 09:42:13;;;;;;;10.77;7.68;;;;;;;28.83;15.71;97689.50;4994682;28;20493;-78
2021/04/01 09:45:00;;;;;;;10.07;6.45;;;;;;;28.35;15.81;97691.38;4993760;28;20034;-79
2021/04/01 09:47:50;;;;;;;14.07;7.15;;;;;;;28.14;15.58;97683.19;5009856;28;20489;-79
2021/04/01 09:50:19;;;;;;;15.90;6.70;;;;;;;28.76;17.58;97696.91;5010715;28;20044;-79
2021/04/01 09:52:58;;;;;;;12.77;7.07;;;;;;;27.81;16.10;97681.00;4994690;28;20124;-78
2021/04/01 09:55:24;;;;;;;9.85;7.07;;;;;;;28.57;17.26;97681.97;4996150;28;20122;-78
2021/04/01 09:57:54;;;;;;;16.73;7.00;;;;;;;27.66;16.86;97674.75;5015094;28;20071;-77
2021/04/01 10:03:15;;;;;;;9.52;6.57;;;;;;;28.26;16.78;97670.56;5031793;28;20110;-76
2021/04/01 10:05:44;;;;;;;12.05;6.90;;;;;;;28.86;15.29;97661.53;5014617;28;20029;-76
2021/04/01 10:08:26;;;;;;;10.07;7.25;;;;;;;29.32;16.54;97673.53;4998012;28;20500;-75
2021/04/01 10:11:08;;;;;;;14.00;6.72;;;;;;;28.40;16.60;97664.91;5014189;28;20037;-76
2021/04/01 10:13:34;;;;;;;13.23;7.07;;;;;;;29.44;16.66;97660.84;5014569;28;20170;-79
2021/04/01 10:15:59;;;;;;;13.85;6.90;;;;;;;29.09;14.61;97645.50;5014261;28;20116;-79
2021/04/01 10:18:33;;;;;;;25.83;7.57;;;;;;;27.89;16.47;97636.03;4998979;28;20036;-78
2021/04/01 10:21:04;;;;;;;11.38;6.55;;;;;;;25.75;18.85;97643.28;5014761;28;20037;-79
2021/04/01 10:23:44;;;;;;;13.05;7.07;;;;;;;26.77;18.03;97645.09;4998717;28;20018;-78
2021/04/01 10:26:12;;;;;;;12.05;6.65;;;;;;;26.51;17.94;97634.69;4997979;28;20485;-80
2021/04/01 10:28:57;;;;;;;38.55;25.02;;;;;;;28.27;15.40;97626.31;4998275;28;20065;-78
2021/04/01 10:31:23;;;;;;;11.95;6.43;;;;;;;28.90;16.84;97641.63;4998808;28;20558;-79
2021/04/01 10:34:00;;;;;;;10.57;6.07;;;;;;;27.96;17.61;97637.75;4997960;28;20037;-80
2021/04/01 10:36:29;;;;;;;14.70;6.10;;;;;;;27.77;17.67;97623.88;5009481;28;20436;-79
2021/04/01 10:39:04;;;;;;;10.25;6.40;;;;;;;29.68;16.27;97617.16;4999414;28;20115;-80
2021/04/01 10:41:33;;;;;;;10.30;6.60;;;;;;;29.42;15.50;97618.84;5016952;28;20462;-79
2021/04/01 10:43:59;;;;;;;9.15;6.50;;;;;;;30.68;15.01;97619.44;5014442;28;20037;-79
2021/04/01 10:46:25;;;;;;;23.40;7.50;;;;;;;30.99;13.68;97612.09;4998069;28;20478;-79
2021/04/01 10:48:55;;;;;;;14.60;6.10;;;;;;;29.73;15.18;97615.44;4997848;28;20036;-79
2021/04/01 10:51:22;;;;;;;10.32;6.32;;;;;;;29.83;15.26;97610.38;4998305;28;20141;-79
2021/04/01 10:53:47;;;;;;;9.40;6.30;;;;;;;30.33;14.30;97605.16;4998132;28;20407;-79
2021/04/01 10:56:13;;;;;;;7.22;5.90;;;;;;;29.11;14.18;97599.28;5014107;28;20045;-79
2021/04/01 10:58:55;;;;;;;11.57;6.07;;;;;;;28.73;15.01;97600.91;4997759;28;20041;-79
2021/04/01 11:01:23;;;;;;;9.40;5.90;;;;;;;29.09;14.46;97595.91;4997705;28;20525;-77
2021/04/01 11:03:53;;;;;;;8.77;5.57;;;;;;;27.77;14.57;97585.41;4996767;28;20222;-77
2021/04/01 11:06:18;;;;;;;9.55;4.88;;;;;;;28.87;13.55;97584.22;4995906;28;20034;-77
2021/04/01 11:08:46;;;;;;;6.68;5.28;;;;;;;26.39;15.62;97568.44;4996777;28;20044;-77
2021/04/01 11:11:13;;;;;;;7.75;4.95;;;;;;;26.86;15.46;97573.41;4996413;28;20041;-76
2021/04/01 11:13:41;;;;;;;6.97;4.95;;;;;;;29.67;13.43;97560.28;5013030;28;20080;-77
2021/04/01 11:16:11;;;;;;;7.28;5.18;;;;;;;31.03;11.80;97563.59;4996656;28;20029;-75
2021/04/01 11:18:39;;;;;;;7.25;5.60;;;;;;;30.85;12.22;97548.81;4996285;28;20075;-76
2021/04/01 11:21:06;;;;;;;8.25;5.38;;;;;;;30.07;12.50;97550.88;4996398;28;20029;-76
2021/04/01 11:23:32;;;;;;;10.15;5.13;;;;;;;31.10;12.76;97555.25;4996111;28;20499;-75
2021/04/01 11:25:59;;;;;;;7.65;4.97;;;;;;;31.75;11.92;97551.06;5030391;28;20142;-76
2021/04/01 11:28:39;;;;;;;7.75;5.82;;;;;;;32.06;11.35;97541.81;4996209;28;20037;-78
2021/04/01 11:31:06;;;;;;;9.50;5.50;;;;;;;31.46;12.88;97546.22;4996427;28;20065;-78
2021/04/01 11:33:32;;;;;;;8.48;5.30;;;;;;;29.10;14.18;97533.38;5012264;28;20037;-76
2021/04/01 11:36:06;;;;;;;10.45;4.85;;;;;;;29.68;12.73;97531.66;5012433;28;20473;-76
2021/04/01 11:39:23;;;;;;;36.88;10.10;;;;;;;29.15;13.75;97514.28;4997248;28;20044;-76
2021/04/01 11:41:30;;;;;;;15.82;5.50;;;;;;;26.42;15.40;97518.66;5014274;28;20048;-80
2021/04/01 11:43:57;;;;;;;12.10;5.85;;;;;;;27.50;15.95;97536.78;4998271;28;20051;-79
2021/04/01 11:46:26;;;;;;;10.27;5.38;;;;;;;29.11;13.98;97532.28;4996379;28;20044;-80
2021/04/01 11:48:52;;;;;;;25.02;10.02;;;;;;;26.80;14.96;97521.19;4996608;28;20121;-80
2021/04/01 11:51:33;;;;;;;23.33;9.80;;;;;;;27.07;15.25;97509.38;4996666;28;20029;-78
2021/04/01 11:53:59;;;;;;;74.00;28.27;;;;;;;26.62;14.72;97504.31;4996201;28;20041;-81
2021/04/01 11:56:36;;;;;;;21.83;5.40;;;;;;;24.63;15.39;97511.81;4996903;28;20500;-80
2021/04/01 11:59:13;;;;;;;10.48;5.00;;;;;;;27.23;14.63;97514.56;5013179;28;20029;-80
2021/04/01 12:01:54;;;;;;;11.30;5.18;;;;;;;25.46;15.66;97506.22;4997541;28;20040;-82
2021/04/01 12:04:23;;;;;;;16.05;5.70;;;;;;;23.32;17.31;97490.81;4997764;28;20046;-83
2021/04/01 12:06:49;;;;;;;7.32;4.97;;;;;;;23.64;17.02;97488.00;4998186;28;20119;-83
2021/04/01 12:09:15;;;;;;;10.27;5.30;;;;;;;24.15;17.30;97505.66;4994373;28;20064;-82
2021/04/01 12:11:45;;;;;;;7.53;5.15;;;;;;;24.80;15.76;97496.94;4998172;28;20037;-83
2021/04/01 12:14:15;;;;;;;7.40;5.00;;;;;;;25.10;16.37;97495.16;4993413;28;20032;-83
2021/04/01 12:16:41;;;;;;;10.23;5.38;;;;;;;25.99;16.12;97497.72;4998045;28;20053;-82
2021/04/01 12:19:08;;;;;;;9.45;5.68;;;;;;;25.70;15.63;97486.78;4996941;28;20130;-84
2021/04/01 12:21:34;;;;;;;8.32;5.15;;;;;;;27.65;15.68;97493.53;4997870;28;20029;-82
2021/04/01 12:24:03;;;;;;;12.02;5.53;;;;;;;27.50;15.27;97490.06;4997001;28;20425;-82
2021/04/01 12:26:47;;;;;;;23.70;5.65;;;;;;;27.48;15.04;97489.41;4998217;28;20028;-81
2021/04/01 12:29:13;;;;;;;12.30;5.03;;;;;;;26.22;15.62;97475.63;5033197;28;20036;-80
2021/04/01 12:31:41;;;;;;;8.95;5.68;;;;;;;28.06;15.13;97482.50;4999905;28;20032;-82
2021/04/01 12:34:11;;;;;;;25.77;6.15;;;;;;;28.96;14.95;97483.78;4998374;28;20049;-82
2021/04/01 12:36:39;;;;;;;12.60;6.40;;;;;;;30.30;13.84;97475.81;4999642;28;20414;-82
2021/04/01 12:39:09;;;;;;;14.20;5.25;;;;;;;30.25;13.10;97465.44;4994876;28;20042;-81
2021/04/01 12:41:37;;;;;;;13.52;5.20;;;;;;;29.80;14.47;97464.56;4998057;28;20038;-82
2021/04/01 12:44:03;;;;;;;6.13;4.65;;;;;;;29.37;13.77;97460.66;4997959;28;20032;-81
2021/04/01 12:46:54;;;;;;;16.25;4.70;;;;;;;28.57;14.38;97458.94;4998279;28;20033;-82
2021/04/01 12:49:20;;;;;;;9.80;5.00;;;;;;;26.10;15.13;97442.34;5010749;28;20045;-82
2021/04/01 12:51:59;;;;;;;7.25;5.25;;;;;;;24.93;16.53;97437.00;5088843;27;20885;-83
2021/04/01 12:54:27;;;;;;;11.48;5.80;;;;;;;27.51;15.49;97447.78;5088425;28;20036;-83
2021/04/01 12:57:05;;;;;;;13.02;6.03;;;;;;;26.46;15.41;97433.22;5075445;28;20028;-82
2021/04/01 12:59:33;;;;;;;9.02;5.55;;;;;;;25.08;16.63;97426.91;5092416;28;20488;-82
2021/04/01 13:02:10;;;;;;;10.70;5.63;;;;;;;26.82;15.77;97442.25;5077249;28;20028;-82
2021/04/01 13:04:38;;;;;;;13.02;5.53;;;;;;;28.73;14.26;97442.03;5090704;28;20119;-83
2021/04/01 13:12:14;;;;;;;9.15;5.43;;;;;;;24.53;16.66;97412.75;5101888;28;20032;-81
2021/04/01 13:14:40;;;;;;;13.85;5.07;;;;;;;24.65;16.12;97417.56;5082083;28;20107;-82
2021/04/01 13:17:06;;;;;;;23.65;5.50;;;;;;;24.71;16.80;97414.09;5091608;28;20403;-81
2021/04/01 13:19:34;;;;;;;14.30;5.30;;;;;;;25.73;16.10;97413.25;5091196;28;20078;-83
2021/04/01 13:27:07;;;;;;;9.40;5.35;;;;;;;26.05;16.56;97413.81;5107564;28;20034;-82
2021/04/01 13:29:35;;;;;;;9.27;5.57;;;;;;;23.92;16.96;97403.66;5098417;28;20027;-82
2021/04/01 13:34:35;;;;;;;8.98;5.00;;;;;;;26.26;15.64;97406.47;5086886;28;20031;-82
2021/04/01 13:39:31;;;;;;;13.73;4.90;;;;;;;25.59;15.22;97405.06;5103643;28;20119;-82
2021/04/01 13:42:43;;;;;;;13.02;5.22;;;;;;;24.29;16.34;97391.94;5090606;28;20023;-82
2021/04/01 13:44:53;;;;;;;9.32;5.70;;;;;;;25.32;16.72;97401.94;5067891;28;20485;-83
2021/04/01 13:47:22;;;;;;;12.00;5.63;;;;;;;26.60;15.00;97381.03;5071263;28;20024;-84
2021/04/01 13:49:53;;;;;;;14.98;5.38;;;;;;;26.75;14.97;97389.13;5069263;28;20067;-83
2021/04/01 14:11:08;;;;;;;8.65;5.13;;;;;;;22.95;17.19;97356.91;5079961;28;20069;-88
2021/04/01 14:13:33;;;;;;;9.90;5.78;;;;;;;22.66;17.38;97362.97;5069479;28;20091;-87
2021/04/01 14:16:00;;;;;;;7.88;5.15;;;;;;;22.40;18.11;97359.56;5060579;28;20035;-88
2021/04/01 14:18:25;;;;;;;7.03;4.65;;;;;;;23.54;16.30;97363.59;5064073;28;20565;-88
2021/04/01 14:20:53;;;;;;;11.27;5.60;;;;;;;24.61;15.85;97363.44;5077814;28;20036;-89
2021/04/01 14:23:24;;;;;;;31.05;6.43;;;;;;;23.21;16.68;97361.03;5079553;28;20095;-88
2021/04/01 14:25:51;;;;;;;13.23;5.53;;;;;;;23.86;16.48;97378.94;5067950;28;20068;-88
2021/04/01 14:28:17;;;;;;;9.75;6.00;;;;;;;23.60;16.48;97363.72;5068463;28;20418;-88
2021/04/01 14:30:42;;;;;;;8.90;4.85;;;;;;;22.00;17.56;97360.44;5068467;28;20111;-87
2021/04/01 14:33:08;;;;;;;17.65;5.97;;;;;;;22.55;17.71;97341.47;5064744;28;20379;-88
2021/04/01 14:35:34;;;;;;;7.97;4.72;;;;;;;22.73;16.59;97363.97;5065253;28;20025;-88
2021/04/01 14:38:03;;;;;;;9.30;5.05;;;;;;;23.14;16.79;97351.84;5056364;28;20029;-87
2021/04/01 14:40:35;;;;;;;8.02;4.45;;;;;;;22.91;17.13;97344.63;5056743;28;20031;-87
2021/04/01 14:43:09;;;;;;;16.55;5.70;;;;;;;23.06;17.36;97361.97;5069028;28;20027;-88
2021/04/01 14:45:35;;;;;;;14.50;4.43;;;;;;;21.90;17.38;97352.44;5070122;28;20114;-89